Time;durP1;ratioP1;P1;durP2;ratioP2;P2;SDS_P1;SDS_P2;PMS_P1;PMS_P2;Temp;Humidity;BMP_temperature;BMP_pressure;BME280_temperature;BME280_humidity;BME280_pressure;Samples;Min_cycle;Max_cycle;Signal;HPM_P1;HPM_P2
2021/11/07 00:00:18;;;;;;;37.60;15.50;;;;;;;5.09;71.69;100346.56;117214;1197;22242;-65
2021/11/07 00:03:06;;;;;;;28.00;11.70;;;;;;;5.07;71.85;100347.09;117054;1197;138280;-64
2021/11/07 00:10:44;;;;;;;15.30;8.90;;;;;;;5.01;72.09;100347.20;117195;1197;22877;-64
2021/11/07 00:13:15;;;;;;;29.60;12.10;;;;;;;5.00;72.19;100344.98;117201;1197;22934;-64
2021/11/07 00:15:44;;;;;;;19.40;10.40;;;;;;;5.00;72.00;100348.24;117061;1198;138130;-64
2021/11/07 00:18:18;;;;;;;30.20;11.50;;;;;;;5.01;72.38;100342.67;117133;1198;22342;-65
2021/11/07 00:25:57;;;;;;;18.50;10.30;;;;;;;5.05;72.26;100333.21;117148;1198;22261;-64
2021/11/07 00:29:06;;;;;;;;;;;;;;;5.06;72.31;100327.76;117110;1197;137915;-65
2021/11/07 00:35:04;;;;;;;18.20;9.90;;;;;;;5.08;72.41;100316.68;117120;1197;137761;-63
2021/11/07 00:36:53;;;;;;;15.80;8.80;;;;;;;5.11;72.61;100318.52;117144;1197;22157;-63
2021/11/07 00:39:31;;;;;;;19.90;9.70;;;;;;;5.11;72.58;100316.98;117074;1197;137631;-64
2021/11/07 00:44:42;;;;;;;15.00;8.20;;;;;;;5.15;72.48;100310.06;117071;1197;137979;-63
2021/11/07 00:50:01;;;;;;;14.70;8.10;;;;;;;5.16;72.74;100303.38;117199;1197;22257;-64
2021/11/07 00:55:39;;;;;;;12.10;7.90;;;;;;;5.18;72.73;100302.76;117231;1197;22297;-63
2021/11/07 00:58:11;;;;;;;14.40;7.50;;;;;;;5.20;72.63;100301.26;117069;1190;138004;-63
2021/11/07 01:00:49;;;;;;;15.20;7.80;;;;;;;5.22;72.76;100301.71;117187;1197;22356;-64
2021/11/07 01:03:19;;;;;;;;;;;;;;;5.22;72.84;100298.23;117148;1197;137491;-64
2021/11/07 01:05:48;;;;;;;14.10;8.30;;;;;;;5.22;72.61;100298.44;117140;1198;22408;-65
2021/11/07 01:08:16;;;;;;;13.70;8.00;;;;;;;5.22;72.83;100298.48;116990;1198;138772;-64
2021/11/07 01:10:46;;;;;;;12.10;7.50;;;;;;;5.20;72.94;100291.58;117185;1198;22429;-65
2021/11/07 01:13:15;;;;;;;18.50;7.80;;;;;;;5.19;72.84;100287.77;117144;1198;23471;-65
2021/11/07 01:15:50;;;;;;;16.00;8.90;;;;;;;5.18;72.64;100285.85;117075;1198;137732;-64
2021/11/07 01:18:18;;;;;;;14.50;8.30;;;;;;;5.16;72.72;100283.77;117267;1197;22305;-64
2021/11/07 01:20:47;;;;;;;15.80;8.90;;;;;;;5.14;72.87;100283.47;114825;1190;137856;-64
2021/11/07 01:23:25;;;;;;;17.60;8.80;;;;;;;5.12;72.72;100283.04;113191;1190;27301;-63
2021/11/07 01:26:01;;;;;;;15.60;9.20;;;;;;;5.09;72.80;100280.70;117232;1198;22338;-65
2021/11/07 01:28:36;;;;;;;15.20;9.00;;;;;;;5.07;72.69;100278.61;117080;1193;137866;-64
2021/11/07 01:31:04;;;;;;;13.50;7.60;;;;;;;5.03;72.85;100275.20;117222;1197;22323;-64
2021/11/07 01:33:33;;;;;;;13.40;8.50;;;;;;;5.00;72.87;100274.91;117075;1197;137863;-64
2021/11/07 01:38:54;;;;;;;;;;;;;;;4.90;72.74;100270.10;117084;1197;138313;-64
2021/11/07 01:43:53;;;;;;;13.70;7.70;;;;;;;4.73;73.10;100263.10;117268;1197;22358;-64
2021/11/07 01:46:32;;;;;;;15.50;8.10;;;;;;;4.64;72.99;100255.78;117129;1197;138635;-64
2021/11/07 01:49:38;;;;;;;13.20;7.80;;;;;;;4.59;73.27;100259.98;117201;1196;22988;-65
2021/11/07 01:52:00;;;;;;;12.40;8.30;;;;;;;4.54;73.22;100261.23;117069;1197;138180;-65
2021/11/07 01:54:36;;;;;;;13.90;7.90;;;;;;;4.49;73.34;100271.63;117220;1197;22297;-64
2021/11/07 01:57:04;;;;;;;11.70;7.60;;;;;;;4.43;73.30;100265.71;117073;1197;139745;-64
2021/11/07 01:59:49;;;;;;;14.30;7.40;;;;;;;4.37;73.36;100266.67;117220;1197;23008;-64
2021/11/07 02:02:17;;;;;;;11.80;7.30;;;;;;;4.34;73.51;100270.02;117062;1197;137777;-65
2021/11/07 02:04:45;;;;;;;14.40;8.20;;;;;;;4.29;73.65;100270.16;117246;1197;22927;-65
2021/11/07 02:07:14;;;;;;;16.40;8.40;;;;;;;4.23;73.70;100264.27;117186;1197;23317;-64
2021/11/07 02:09:42;;;;;;;15.50;8.10;;;;;;;4.20;73.99;100265.98;117055;1190;137773;-65
2021/11/07 02:12:11;;;;;;;14.60;8.60;;;;;;;4.17;74.26;100268.27;117212;1197;22308;-64
2021/11/07 02:14:40;;;;;;;16.40;9.10;;;;;;;4.13;74.27;100267.16;117107;1197;138942;-65
2021/11/07 02:17:08;;;;;;;14.00;8.20;;;;;;;4.08;74.29;100265.96;117221;1197;22310;-65
2021/11/07 02:19:44;;;;;;;16.30;8.80;;;;;;;4.05;74.50;100263.41;117171;1198;22992;-64
2021/11/07 02:22:12;;;;;;;14.00;9.10;;;;;;;4.03;74.45;100268.88;117015;1197;137821;-65
2021/11/07 02:24:41;;;;;;;13.40;7.70;;;;;;;4.00;74.63;100268.83;117170;1190;22333;-64
2021/11/07 02:27:09;;;;;;;15.20;8.20;;;;;;;3.97;74.57;100264.77;117046;1196;138830;-64
2021/11/07 02:29:38;;;;;;;14.40;8.30;;;;;;;3.94;74.82;100266.10;117257;1197;22267;-64
2021/11/07 02:32:10;;;;;;;11.10;7.90;;;;;;;3.90;74.76;100266.55;117062;1197;138793;-65
2021/11/07 02:34:39;;;;;;;15.10;8.50;;;;;;;3.87;75.34;100258.35;117155;1197;22362;-64
2021/11/07 02:37:07;;;;;;;15.20;8.50;;;;;;;3.86;75.11;100259.52;117155;1198;22305;-64
2021/11/07 02:39:35;;;;;;;16.10;8.90;;;;;;;3.85;75.40;100256.90;117133;1190;137692;-64
2021/11/07 02:42:05;;;;;;;12.60;8.80;;;;;;;3.85;75.46;100261.75;117235;1197;22154;-63
2021/11/07 02:44:35;;;;;;;14.00;8.20;;;;;;;3.83;75.41;100254.72;117129;1197;139195;-63
2021/11/07 02:47:07;;;;;;;14.70;9.40;;;;;;;3.80;75.39;100253.27;117249;1197;22296;-63
2021/11/07 02:49:35;;;;;;;15.10;8.40;;;;;;;3.76;75.20;100251.27;117130;1198;22996;-62
2021/11/07 02:52:05;;;;;;;16.50;8.80;;;;;;;3.71;75.00;100248.09;117031;1198;137978;-61
2021/11/07 02:54:34;;;;;;;15.30;9.00;;;;;;;3.65;75.01;100247.11;117181;1197;22237;-64
2021/11/07 02:57:04;;;;;;;15.20;8.90;;;;;;;3.61;75.45;100246.96;117124;1197;138635;-63
2021/11/07 02:59:40;;;;;;;14.90;8.60;;;;;;;3.56;75.32;100252.61;117239;1197;23084;-63
2021/11/07 03:02:09;;;;;;;14.80;8.30;;;;;;;3.50;75.09;100252.79;117253;1197;23001;-63
2021/11/07 03:04:38;;;;;;;22.60;9.50;;;;;;;3.44;75.36;100246.95;117169;1197;138501;-63
2021/11/07 03:07:07;;;;;;;12.90;8.40;;;;;;;3.38;75.58;100250.95;117275;1197;22320;-63
2021/11/07 03:09:37;;;;;;;22.10;10.00;;;;;;;3.33;75.82;100254.42;117065;1197;138786;-63
2021/11/07 03:12:07;;;;;;;15.70;9.30;;;;;;;3.31;75.97;100257.98;117132;1197;23169;-63
2021/11/07 03:14:55;;;;;;;16.50;9.40;;;;;;;3.30;76.22;100257.42;117186;1197;138003;-63
2021/11/07 03:17:25;;;;;;;16.80;8.80;;;;;;;3.28;76.33;100258.52;117177;1198;22337;-63
2021/11/07 03:19:53;;;;;;;19.90;10.00;;;;;;;3.29;76.67;100257.00;117201;1183;22447;-63
2021/11/07 03:22:24;;;;;;;17.80;9.00;;;;;;;3.29;76.85;100257.71;117120;1197;138061;-62
2021/11/07 03:24:54;;;;;;;18.00;9.80;;;;;;;3.27;76.92;100261.16;117236;1197;22501;-63
2021/11/07 03:27:29;;;;;;;16.60;9.70;;;;;;;3.26;76.82;100262.89;117150;1197;138170;-62
2021/11/07 03:30:00;;;;;;;21.20;10.40;;;;;;;3.23;76.86;100261.24;117257;1197;22331;-64
2021/11/07 03:32:31;;;;;;;17.30;10.10;;;;;;;3.19;76.71;100254.98;117089;1197;138572;-64
2021/11/07 03:35:03;;;;;;;14.40;9.00;;;;;;;3.19;76.89;100262.07;117256;1194;22248;-64
2021/11/07 03:37:37;;;;;;;16.10;9.60;;;;;;;3.17;76.96;100263.17;117184;1197;22355;-64
2021/11/07 03:40:07;;;;;;;16.50;10.40;;;;;;;3.16;76.86;100260.81;117102;1197;138228;-64
2021/11/07 03:45:08;;;;;;;17.00;8.70;;;;;;;3.19;77.20;100250.95;111279;1215;545463;-61
2021/11/07 03:47:36;;;;;;;18.90;9.70;;;;;;;3.17;77.35;100252.78;116259;1204;22352;-62
2021/11/07 03:50:06;;;;;;;16.50;9.20;;;;;;;3.18;77.42;100252.00;116338;1200;22266;-62
2021/11/07 03:52:34;;;;;;;13.90;8.90;;;;;;;3.18;77.51;100256.67;116132;1204;138218;-62
2021/11/07 03:55:05;;;;;;;19.10;9.20;;;;;;;3.18;77.65;100252.36;116302;1205;22399;-62
2021/11/07 03:57:34;;;;;;;14.30;8.90;;;;;;;3.19;77.59;100247.80;116273;1203;136912;-63
2021/11/07 04:00:06;;;;;;;18.40;9.50;;;;;;;3.19;77.97;100243.80;116295;1204;23145;-62
2021/11/07 04:02:36;;;;;;;14.10;9.20;;;;;;;3.21;77.79;100244.83;116232;1204;137681;-62
2021/11/07 04:05:05;;;;;;;15.60;9.80;;;;;;;3.24;78.07;100241.98;116342;1204;22203;-62
2021/11/07 04:07:38;;;;;;;15.50;9.80;;;;;;;3.27;78.02;100241.53;116321;1204;23140;-63
2021/11/07 04:10:08;;;;;;;18.30;10.50;;;;;;;3.31;78.23;100243.55;116301;1204;137857;-63
2021/11/07 04:12:36;;;;;;;16.10;9.50;;;;;;;3.34;78.44;100241.50;116365;1204;24361;-62
2021/11/07 04:15:04;;;;;;;15.70;9.90;;;;;;;3.38;78.18;100235.87;116244;1204;137307;-62
2021/11/07 04:17:34;;;;;;;14.10;9.30;;;;;;;3.43;78.48;100231.70;116338;1204;22138;-64
2021/11/07 04:20:06;;;;;;;24.00;9.60;;;;;;;3.46;78.27;100226.00;116344;1204;22350;-65
2021/11/07 04:22:34;;;;;;;17.70;10.10;;;;;;;3.50;78.61;100227.80;116257;1204;137478;-65
2021/11/07 04:25:04;;;;;;;15.30;10.30;;;;;;;3.54;78.31;100226.22;116346;1204;22164;-64
2021/11/07 04:27:32;;;;;;;18.40;10.70;;;;;;;3.57;78.61;100221.57;116194;1204;137910;-64
2021/11/07 04:30:00;;;;;;;17.10;10.30;;;;;;;3.61;78.45;100223.66;116317;1204;22331;-64
2021/11/07 04:32:31;;;;;;;18.20;10.80;;;;;;;3.63;78.41;100222.21;116188;1203;137818;-64
2021/11/07 04:34:59;;;;;;;21.40;10.80;;;;;;;3.64;78.13;100223.22;116341;1204;22805;-64
2021/11/07 04:37:28;;;;;;;16.30;10.10;;;;;;;3.64;77.91;100220.48;116319;1204;22343;-64
2021/11/07 04:39:56;;;;;;;16.20;9.80;;;;;;;3.64;78.14;100218.87;116273;1204;138752;-69
2021/11/07 04:42:25;;;;;;;16.50;9.60;;;;;;;3.65;78.04;100217.70;116348;1204;22318;-70
2021/11/07 04:44:52;;;;;;;17.40;9.80;;;;;;;3.64;78.04;100222.60;116241;1204;137669;-70
2021/11/07 04:47:21;;;;;;;16.90;9.70;;;;;;;3.63;78.00;100225.79;116311;1204;22333;-69
2021/11/07 04:49:53;;;;;;;15.60;9.80;;;;;;;3.62;77.66;100230.42;116353;1204;22306;-70
2021/11/07 04:52:21;;;;;;;15.80;10.40;;;;;;;3.61;77.89;100233.27;116401;1203;138820;-70
2021/11/07 04:54:49;;;;;;;17.60;10.20;;;;;;;3.58;77.58;100230.45;116569;1203;23283;-70
2021/11/07 04:57:17;;;;;;;14.70;9.90;;;;;;;3.56;77.60;100229.42;116318;1203;137602;-70
2021/11/07 04:59:46;;;;;;;17.00;9.60;;;;;;;3.55;77.82;100229.55;116341;1203;23107;-70
2021/11/07 05:02:14;;;;;;;16.80;9.50;;;;;;;3.53;77.78;100232.80;116420;1204;23016;-70
2021/11/07 05:04:42;;;;;;;16.90;10.10;;;;;;;3.53;77.94;100240.19;116245;1203;138110;-70
2021/11/07 05:07:10;;;;;;;17.70;10.20;;;;;;;3.53;77.81;100241.09;116231;1204;22266;-70
2021/11/07 05:09:38;;;;;;;19.70;11.30;;;;;;;3.52;78.02;100245.10;116234;1204;138588;-70
2021/11/07 05:12:16;;;;;;;17.00;10.30;;;;;;;3.52;77.88;100245.14;116419;1203;22375;-70
2021/11/07 05:14:45;;;;;;;14.90;10.60;;;;;;;3.52;77.52;100246.23;116251;1197;137742;-70
2021/11/07 05:17:13;;;;;;;17.60;10.80;;;;;;;3.52;77.72;100246.55;116386;1203;22253;-70
2021/11/07 05:19:41;;;;;;;17.80;13.30;;;;;;;3.52;77.69;100251.20;116587;1201;22969;-70
2021/11/07 05:22:09;;;;;;;20.30;13.50;;;;;;;3.52;77.31;100253.51;116504;1203;137828;-70
2021/11/07 05:24:38;;;;;;;23.50;14.50;;;;;;;3.49;77.58;100254.64;116472;1202;22243;-71
2021/11/07 05:27:06;;;;;;;20.00;12.20;;;;;;;3.48;77.51;100255.51;116422;1203;137574;-70
2021/11/07 05:29:34;;;;;;;20.80;11.10;;;;;;;3.47;77.75;100255.13;116605;1201;23413;-70
2021/11/07 05:32:04;;;;;;;22.10;12.00;;;;;;;3.46;77.71;100260.14;116545;1203;22342;-70
2021/11/07 05:34:33;;;;;;;18.60;11.30;;;;;;;3.46;77.76;100264.34;116497;1203;137882;-71
2021/11/07 05:37:01;;;;;;;21.50;12.10;;;;;;;3.46;77.73;100269.64;116547;1201;22494;-71
2021/11/07 05:39:30;;;;;;;21.30;10.90;;;;;;;3.47;77.96;100258.89;116373;1202;137776;-64
2021/11/07 05:41:59;;;;;;;17.10;11.00;;;;;;;3.49;77.56;100251.86;116589;1202;23420;-64
2021/11/07 05:44:28;;;;;;;30.40;12.40;;;;;;;3.49;77.78;100251.25;116381;1202;137713;-63
2021/11/07 05:46:57;;;;;;;16.50;11.00;;;;;;;3.51;77.76;100243.92;116670;1202;22377;-64
2021/11/07 05:49:25;;;;;;;16.60;10.80;;;;;;;3.52;77.69;100244.77;116710;1201;22227;-64
2021/11/07 08:17:35;;;;;;;17.20;9.90;;;;;;;7.11;71.27;100149.92;114705;1201;22469;-85
2021/11/07 08:20:06;;;;;;;19.40;11.20;;;;;;;7.20;70.87;100147.61;114610;1204;24122;-85
2021/11/07 08:22:36;;;;;;;16.70;10.50;;;;;;;7.28;70.60;100137.98;115245;1202;137454;-84
2021/11/07 08:25:11;;;;;;;22.50;12.50;;;;;;;7.35;70.50;100134.17;114781;1202;23267;-85
2021/11/07 08:27:43;;;;;;;20.00;11.50;;;;;;;7.45;70.13;100137.47;115343;1202;138757;-85
2021/11/07 08:30:12;;;;;;;15.30;9.70;;;;;;;7.54;69.73;100130.08;115222;1196;23045;-85
2021/11/07 08:32:40;;;;;;;14.10;8.20;;;;;;;7.61;69.71;100123.77;115054;1201;136636;-85
2021/11/07 08:35:08;;;;;;;15.90;8.90;;;;;;;7.68;69.66;100119.41;115082;1197;22469;-84
2021/11/07 08:37:54;;;;;;;14.20;8.00;;;;;;;7.77;69.59;100114.59;115148;1196;22439;-85
2021/11/07 08:40:34;;;;;;;12.10;8.60;;;;;;;7.85;69.41;100114.44;114607;1202;137584;-84
2021/11/07 09:00:29;;;;;;;17.20;11.20;;;;;;;8.19;67.56;100097.44;116266;1202;25036;-84
2021/11/07 09:08:22;;;;;;;16.30;9.90;;;;;;;8.26;67.21;100071.94;116076;1202;138077;-86
2021/11/07 09:10:57;;;;;;;13.10;8.40;;;;;;;8.32;67.11;100071.27;116001;1202;22457;-86
2021/11/07 09:13:30;;;;;;;15.60;9.20;;;;;;;8.37;67.13;100071.23;115488;1198;22448;-85
2021/11/07 09:16:01;;;;;;;19.50;11.80;;;;;;;8.40;66.89;100059.31;115348;1200;136875;-86
2021/11/07 09:18:33;;;;;;;18.60;11.40;;;;;;;8.45;66.99;100055.33;116595;1195;22508;-84
2021/11/07 09:21:09;;;;;;;16.10;9.60;;;;;;;8.50;66.74;100061.83;116738;1202;136897;-84
2021/11/07 09:34:18;;;;;;;16.40;8.70;;;;;;;8.72;66.05;100050.66;115458;1202;137018;-87
2021/11/07 09:39:54;;;;;;;17.90;9.50;;;;;;;8.83;65.83;100038.05;114816;1201;136834;-85
2021/11/07 09:45:45;;;;;;;12.80;8.50;;;;;;;8.96;65.75;100020.20;114939;1202;138395;-84
2021/11/07 09:48:24;;;;;;;11.60;7.90;;;;;;;9.02;65.66;100013.41;115454;1201;22484;-86
2021/11/07 09:50:54;;;;;;;18.80;10.10;;;;;;;9.08;65.37;100004.08;115226;1202;137441;-85
2021/11/07 09:53:23;;;;;;;17.00;9.30;;;;;;;9.12;65.43;99998.04;115330;1201;22524;-85
2021/11/07 09:55:54;;;;;;;13.50;9.40;;;;;;;9.18;65.44;99993.39;115219;1200;22474;-86
2021/11/07 09:58:22;;;;;;;12.00;8.60;;;;;;;9.25;65.22;99986.20;114908;1202;136899;-86
2021/11/07 10:00:53;;;;;;;15.40;8.90;;;;;;;9.30;64.86;99980.45;115139;1202;24161;-85
2021/11/07 10:03:58;;;;;;;14.30;7.80;;;;;;;9.35;64.37;99970.23;115144;1201;137972;-85
2021/11/07 10:06:58;;;;;;;11.20;7.70;;;;;;;9.40;64.17;99963.80;114957;1202;22464;-85
2021/11/07 10:09:34;;;;;;;12.80;9.00;;;;;;;9.45;64.07;99967.67;114609;1196;137460;-84
2021/11/07 10:12:34;;;;;;;9.90;7.20;;;;;;;9.51;64.02;99976.44;114754;1201;25449;-85
2021/11/07 10:15:42;;;;;;;13.40;8.80;;;;;;;9.55;63.65;99979.69;115064;1201;138121;-85
2021/11/07 10:18:36;;;;;;;15.20;8.20;;;;;;;9.58;63.34;99974.08;115853;1201;25766;-85
2021/11/07 10:21:34;;;;;;;14.90;8.00;;;;;;;9.62;63.31;99977.70;115949;1202;136810;-86
2021/11/07 10:24:05;;;;;;;14.90;8.20;;;;;;;9.65;62.98;99975.71;116573;1202;22426;-85
2021/11/07 10:26:36;;;;;;;12.30;7.60;;;;;;;9.67;62.67;99968.45;116813;1202;136955;-85
2021/11/07 10:29:17;;;;;;;13.40;8.30;;;;;;;9.70;62.53;99959.63;116929;1202;22448;-86
2021/11/07 10:32:41;;;;;;;12.40;8.60;;;;;;;9.72;62.14;99956.85;115932;1194;22903;-86
2021/11/07 10:35:45;;;;;;;13.10;8.80;;;;;;;9.78;62.46;99951.20;114784;1203;22436;-85
2021/11/07 10:41:08;;;;;;;13.60;8.90;;;;;;;9.85;62.00;99950.52;114716;1196;137408;-83
2021/11/07 10:43:52;;;;;;;13.20;8.90;;;;;;;9.90;61.97;99947.52;115231;1203;24057;-84
2021/11/07 10:46:58;;;;;;;13.20;8.10;;;;;;;9.93;61.81;99949.80;114930;1197;137321;-86
2021/11/07 10:52:25;;;;;;;11.90;8.60;;;;;;;10.00;60.95;99945.67;115106;1204;138148;-84
2021/11/07 10:54:55;;;;;;;12.20;7.70;;;;;;;10.02;60.56;99927.82;115390;1197;24047;-86
2021/11/07 10:57:25;;;;;;;12.70;7.50;;;;;;;10.04;60.33;99919.31;115394;1202;137118;-85
2021/11/07 11:00:13;;;;;;;10.60;7.60;;;;;;;10.05;60.32;99914.91;115413;1202;22442;-84
2021/11/07 11:02:44;;;;;;;10.70;8.00;;;;;;;10.06;60.09;99908.61;115441;1201;22436;-85
2021/11/07 11:05:19;;;;;;;10.80;7.80;;;;;;;10.06;60.11;99904.70;115212;1202;137614;-84
2021/11/07 11:08:05;;;;;;;12.30;7.30;;;;;;;10.08;60.19;99898.14;115778;1202;22507;-85
2021/11/07 11:16:28;;;;;;;14.90;9.00;;;;;;;10.11;60.02;99916.59;114332;1206;138427;-85
2021/11/07 11:22:38;;;;;;;15.10;9.20;;;;;;;10.15;59.81;99920.90;115169;1206;138238;-86
2021/11/07 11:33:19;;;;;;;17.10;8.90;;;;;;;9.99;60.04;99875.86;115401;1201;137029;-85
2021/11/07 11:36:00;;;;;;;12.90;8.40;;;;;;;9.96;60.04;99869.65;115167;1206;23058;-85
2021/11/07 11:38:42;;;;;;;14.60;9.50;;;;;;;9.95;60.44;99873.31;115649;1200;24116;-85
2021/11/07 11:41:16;;;;;;;13.70;10.30;;;;;;;9.93;60.53;99866.48;115329;1206;137016;-85
2021/11/07 11:43:48;;;;;;;16.00;9.60;;;;;;;9.92;60.48;99852.78;115572;1204;22440;-84
2021/11/07 11:46:53;;;;;;;14.50;10.50;;;;;;;9.90;60.79;99853.18;115264;1200;137097;-84
2021/11/07 12:02:58;;;;;;;13.70;7.90;;;;;;;9.91;60.88;99840.65;114333;1206;136755;-85
2021/11/07 12:05:47;;;;;;;11.20;8.00;;;;;;;9.91;60.54;99841.23;114522;1206;22445;-84
2021/11/07 12:08:35;;;;;;;17.70;9.60;;;;;;;9.92;61.04;99838.96;114489;1206;22440;-85
2021/11/07 12:14:11;;;;;;;15.40;9.20;;;;;;;9.90;60.80;99831.25;114601;1205;22493;-85
2021/11/07 12:17:05;;;;;;;12.80;8.80;;;;;;;9.88;60.99;99821.30;114502;1200;137526;-85
2021/11/07 12:19:33;;;;;;;13.70;9.50;;;;;;;9.84;61.28;99821.59;114660;1206;22616;-83
2021/11/07 12:22:05;;;;;;;16.80;8.90;;;;;;;9.81;61.60;99821.35;115131;1200;135975;-83
2021/11/07 12:24:47;;;;;;;15.50;10.60;;;;;;;9.80;61.81;99812.52;115716;1206;22448;-84
2021/11/07 12:27:25;;;;;;;17.30;11.20;;;;;;;9.79;61.89;99800.25;115574;1200;136457;-84
2021/11/07 12:29:58;;;;;;;14.50;10.30;;;;;;;9.76;61.95;99803.58;114919;1203;22410;-85
2021/11/07 12:32:38;;;;;;;16.30;10.00;;;;;;;9.74;62.01;99803.33;114386;1197;23801;-84
2021/11/07 12:35:10;;;;;;;15.50;10.60;;;;;;;9.73;62.24;99797.15;114475;1202;137181;-84
2021/11/07 12:40:58;;;;;;;13.40;9.60;;;;;;;9.70;62.47;99782.56;114744;1196;136100;-85
2021/11/07 12:43:33;;;;;;;17.40;10.60;;;;;;;9.68;62.33;99790.90;114865;1200;25179;-85
2021/11/07 12:46:47;;;;;;;15.00;10.30;;;;;;;9.64;62.39;99793.84;114604;1193;138362;-85
2021/11/07 12:49:15;;;;;;;15.30;9.80;;;;;;;9.58;62.45;99782.09;114846;1202;24024;-85
2021/11/07 12:51:50;;;;;;;15.40;9.10;;;;;;;9.53;62.20;99778.20;114825;1202;138338;-84
2021/11/07 12:54:24;;;;;;;17.40;10.10;;;;;;;9.50;62.34;99772.06;114982;1202;22475;-83
2021/11/07 12:57:00;;;;;;;17.00;10.50;;;;;;;9.48;62.39;99769.72;115263;1196;136958;-84
2021/11/07 12:59:50;;;;;;;17.40;10.90;;;;;;;9.46;62.46;99776.91;115414;1202;22495;-85
2021/11/07 13:02:18;;;;;;;18.10;10.20;;;;;;;9.43;62.56;99777.23;115363;1202;22718;-85
2021/11/07 13:04:56;;;;;;;15.30;9.60;;;;;;;9.40;62.20;99776.80;114969;1196;136800;-85
2021/11/07 13:07:41;;;;;;;16.40;10.10;;;;;;;9.36;62.38;99765.77;115173;1202;22456;-84
2021/11/07 13:10:18;;;;;;;13.40;9.70;;;;;;;9.33;62.38;99769.18;115314;1201;136724;-85
2021/11/07 13:12:50;;;;;;;17.30;11.50;;;;;;;9.29;62.56;99766.96;115574;1200;22560;-83
2021/11/07 13:24:22;;;;;;;17.60;11.60;;;;;;;9.07;63.90;99762.29;115042;1205;22464;-85
2021/11/07 13:32:34;;;;;;;20.30;13.00;;;;;;;8.93;64.32;99744.82;115197;1206;22648;-84
2021/11/07 13:35:11;;;;;;;21.60;14.20;;;;;;;8.87;64.46;99735.61;114744;1204;136738;-85
2021/11/07 13:37:47;;;;;;;20.20;13.30;;;;;;;8.88;64.67;99734.00;116228;1200;22397;-84
2021/11/07 13:40:31;;;;;;;21.30;13.10;;;;;;;8.83;64.94;99734.14;116433;1203;136886;-84
2021/11/07 13:43:14;;;;;;;28.10;16.00;;;;;;;8.78;65.22;99722.80;116531;1200;22188;-83
2021/11/07 13:45:44;;;;;;;26.40;15.70;;;;;;;8.75;65.48;99721.36;116396;1206;137063;-84
2021/11/07 13:48:31;;;;;;;22.70;14.90;;;;;;;8.71;65.65;99707.43;116300;1206;22491;-84
2021/11/07 13:51:03;;;;;;;23.80;15.20;;;;;;;8.66;65.92;99702.39;115950;1204;22520;-83
2021/11/07 13:53:35;;;;;;;22.10;13.20;;;;;;;8.63;66.12;99693.37;115673;1205;137986;-84
2021/11/07 13:56:17;;;;;;;21.70;12.80;;;;;;;8.58;66.21;99688.75;115732;1196;22480;-84
2021/11/07 13:59:30;;;;;;;21.90;12.80;;;;;;;8.54;66.25;99684.92;115753;1204;136730;-83
2021/11/07 14:02:23;;;;;;;17.60;12.70;;;;;;;8.48;66.39;99676.38;115810;1208;22811;-83
2021/11/07 14:05:28;;;;;;;18.80;13.30;;;;;;;8.47;66.44;99680.38;115676;1209;137132;-82
2021/11/07 14:08:08;;;;;;;20.80;13.50;;;;;;;8.41;66.48;99676.30;115594;1208;22124;-82
2021/11/07 14:10:42;;;;;;;22.10;14.20;;;;;;;8.40;66.50;99677.79;115474;1208;137382;-84
2021/11/07 14:13:22;;;;;;;20.80;13.40;;;;;;;8.36;66.49;99668.34;115689;1207;22177;-83
2021/11/07 14:15:52;;;;;;;19.70;13.10;;;;;;;8.32;66.69;99665.25;115636;1203;137541;-83
2021/11/07 14:18:34;;;;;;;25.60;14.60;;;;;;;8.33;66.61;99665.00;115887;1208;22472;-83
2021/11/07 14:21:07;;;;;;;17.80;13.40;;;;;;;8.32;66.63;99662.09;114278;1176;67248;-68
2021/11/07 14:24:09;;;;;;;27.40;13.90;;;;;;;8.29;66.84;99657.60;112327;1195;138672;-68
2021/11/07 14:26:43;;;;;;;22.40;15.50;;;;;;;8.27;66.93;99658.98;116566;1201;22327;-70
2021/11/07 14:29:39;;;;;;;23.60;16.20;;;;;;;8.24;67.25;99658.41;116695;1201;22453;-68
2021/11/07 14:35:06;;;;;;;22.60;14.40;;;;;;;8.18;67.71;99658.63;116712;1201;22336;-70
2021/11/07 14:40:21;;;;;;;23.70;14.20;;;;;;;8.13;68.08;99665.47;116392;1202;22249;-69
2021/11/07 14:43:05;;;;;;;24.00;14.70;;;;;;;8.11;68.10;99672.15;116500;1196;137845;-69
2021/11/07 14:48:36;;;;;;;24.70;14.00;;;;;;;8.09;69.05;99676.16;116455;1201;138430;-68
2021/11/07 15:05:09;;;;;;;27.30;16.00;;;;;;;7.77;72.18;99692.45;116296;1202;22935;-67
2021/11/07 15:07:45;;;;;;;22.90;14.50;;;;;;;7.72;72.61;99685.23;116558;1201;138353;-67
2021/11/07 15:13:05;;;;;;;32.30;18.90;;;;;;;7.63;73.30;99681.05;116560;1201;138278;-67
2021/11/07 15:18:51;;;;;;;33.20;19.30;;;;;;;7.54;73.77;99682.54;116218;1202;139951;-68
2021/11/07 15:21:30;;;;;;;34.10;19.30;;;;;;;7.45;74.15;99680.65;116638;1202;22327;-67
2021/11/07 15:24:06;;;;;;;36.00;22.60;;;;;;;7.37;74.70;99680.94;116582;1201;137946;-68
2021/11/07 15:26:42;;;;;;;48.70;27.60;;;;;;;7.30;75.12;99678.17;116600;1202;22372;-68
2021/11/07 15:29:20;;;;;;;34.00;20.70;;;;;;;7.26;75.39;99675.23;116702;1195;23153;-69
2021/11/07 15:32:10;;;;;;;36.80;22.30;;;;;;;7.19;75.79;99663.52;116527;1200;137821;-72
2021/11/07 15:34:48;;;;;;;32.90;21.90;;;;;;;7.12;76.27;99660.46;116670;1202;22315;-71
2021/11/07 15:37:31;;;;;;;30.60;19.70;;;;;;;7.08;76.56;99659.88;116555;1195;138284;-72
2021/11/07 15:40:04;;;;;;;27.10;19.20;;;;;;;7.04;76.85;99646.79;116594;1202;22369;-66
2021/11/07 15:42:34;;;;;;;29.30;20.30;;;;;;;6.99;77.14;99648.39;116466;1202;137838;-67
2021/11/07 15:45:21;;;;;;;30.10;19.30;;;;;;;6.98;77.43;99652.95;116666;1201;22267;-66
2021/11/07 15:47:53;;;;;;;34.20;21.70;;;;;;;6.96;77.82;99657.67;116612;1201;138318;-66
2021/11/07 15:50:39;;;;;;;32.10;22.70;;;;;;;6.96;77.82;99653.93;114964;1202;22429;-64
2021/11/07 15:55:50;;;;;;;34.90;22.50;;;;;;;6.99;78.42;99642.10;116610;1202;138555;-75
2021/11/07 16:02:45;;;;;;;32.40;21.40;;;;;;;7.08;78.96;99635.17;111060;1216;545153;-71
2021/11/07 16:05:57;;;;;;;29.90;18.20;;;;;;;7.10;78.68;99630.77;116327;1204;22378;-71
2021/11/07 16:10:52;;;;;;;27.60;16.50;;;;;;;7.13;78.53;99590.91;116096;1204;22328;-65
2021/11/07 16:13:32;;;;;;;26.80;17.00;;;;;;;7.14;78.43;99592.94;116134;1204;136981;-65
2021/11/07 16:16:32;;;;;;;33.00;18.90;;;;;;;7.13;78.44;99593.73;113577;1200;22775;-67
2021/11/07 16:18:57;;;;;;;29.60;17.70;;;;;;;7.13;78.60;99594.66;111964;1204;138093;-66
2021/11/07 16:21:27;;;;;;;26.10;17.60;;;;;;;7.10;78.40;99595.56;112059;1205;23144;-71
2021/11/07 16:24:07;;;;;;;31.10;17.50;;;;;;;7.07;78.39;99595.59;116073;1204;137410;-68
2021/11/07 16:26:36;;;;;;;32.00;19.30;;;;;;;7.03;78.32;99591.12;116313;1204;22493;-69
2021/11/07 16:29:05;;;;;;;33.30;19.20;;;;;;;6.99;78.45;99588.09;116342;1204;22347;-69
2021/11/07 16:31:39;;;;;;;32.30;20.80;;;;;;;6.96;78.66;99587.34;116201;1204;138083;-69
2021/11/07 16:34:10;;;;;;;29.40;18.20;;;;;;;6.91;78.86;99584.06;116357;1204;22330;-69
2021/11/07 16:36:45;;;;;;;34.10;18.00;;;;;;;6.87;78.89;99585.80;116153;1205;138404;-68
2021/11/07 16:41:49;;;;;;;31.80;19.50;;;;;;;6.82;79.12;99580.11;116336;1199;23148;-69
2021/11/07 16:44:18;;;;;;;29.30;18.40;;;;;;;6.81;79.18;99578.67;116160;1199;137078;-69
2021/11/07 16:47:01;;;;;;;30.20;16.70;;;;;;;6.79;79.28;99572.94;116306;1204;23142;-69
2021/11/07 16:49:32;;;;;;;28.30;17.10;;;;;;;6.78;79.18;99566.15;116114;1197;137306;-69
2021/11/07 16:52:14;;;;;;;35.30;20.40;;;;;;;6.75;79.22;99557.48;116367;1204;23359;-69
2021/11/07 16:54:53;;;;;;;27.60;17.20;;;;;;;6.73;79.43;99551.05;116155;1204;138417;-69
2021/11/07 16:57:24;;;;;;;28.10;17.50;;;;;;;6.70;79.48;99543.31;116253;1198;22876;-69
2021/11/07 16:59:58;;;;;;;27.50;18.10;;;;;;;6.67;79.66;99538.85;116220;1204;22244;-68
2021/11/07 17:05:05;;;;;;;30.80;18.50;;;;;;;6.61;79.70;99532.83;116313;1190;22370;-71